createdAt,value
2023-02-05T00:08:42.305Z,7.07
2023-02-05T00:18:45.957Z,6.98
2023-02-05T00:28:48.902Z,7.06
2023-02-05T00:38:52.207Z,7.26
2023-02-05T00:48:56.215Z,7.38
2023-02-05T00:59:00.486Z,7.68
2023-02-05T01:09:03.674Z,7.62
2023-02-05T01:19:06.573Z,7.14
2023-02-05T01:29:09.527Z,7.90
2023-02-05T01:39:12.888Z,8.03
2023-02-05T01:49:31.355Z,8.14
2023-02-05T01:59:37.334Z,8.23
2023-02-05T02:09:45.049Z,7.74
2023-02-05T02:20:00.410Z,8.15
2023-02-05T02:30:10.579Z,8.14
2023-02-05T02:40:20.365Z,8.65
2023-02-05T02:50:36.172Z,8.09
2023-02-05T03:00:40.581Z,7.84
2023-02-05T03:11:09.779Z,8.07
2023-02-05T03:21:19.308Z,7.84
2023-02-05T03:31:58.755Z,7.78
2023-02-05T03:42:10.017Z,7.85
2023-02-05T03:52:18.616Z,7.37
2023-02-05T04:02:22.511Z,7.60
2023-02-05T04:12:25.581Z,8.00
2023-02-05T04:22:29.119Z,8.03
2023-02-05T04:32:32.038Z,8.29
2023-02-05T04:42:35.244Z,8.29
2023-02-05T04:52:38.377Z,8.01
2023-02-05T05:02:41.276Z,7.56
2023-02-05T05:12:44.019Z,7.85
2023-02-05T05:22:47.171Z,7.96
2023-02-05T05:32:49.995Z,7.63
2023-02-05T05:43:13.768Z,7.75
2023-02-05T05:53:16.598Z,7.97
2023-02-05T06:03:19.242Z,7.91
2023-02-05T06:13:22.239Z,8.03
2023-02-05T06:23:24.947Z,8.66
2023-02-05T06:33:28.231Z,7.93
2023-02-05T06:43:31.215Z,8.19
2023-02-05T06:53:34.231Z,8.13
2023-02-05T07:03:37.146Z,8.17
2023-02-05T07:13:39.804Z,8.14
2023-02-05T07:23:42.634Z,7.78
2023-02-05T07:33:46.677Z,8.43
2023-02-05T07:43:53.639Z,8.07
2023-02-05T07:53:56.685Z,7.38
2023-02-05T08:03:59.818Z,7.78
2023-02-05T08:14:03.307Z,7.36
2023-02-05T08:24:06.619Z,7.23
2023-02-05T08:34:10.471Z,6.93
2023-02-05T08:44:13.566Z,7.70
2023-02-05T08:54:16.757Z,6.94
2023-02-05T09:04:22.156Z,6.15
2023-02-05T09:14:25.208Z,5.80
2023-02-05T09:24:28.368Z,6.21
2023-02-05T09:34:32.896Z,6.41
2023-02-05T09:44:42.059Z,6.21
2023-02-05T09:54:48.781Z,5.91
2023-02-05T10:04:55.093Z,6.41
2023-02-05T10:15:10.173Z,6.88
2023-02-05T10:25:32.093Z,6.47
2023-02-05T10:35:59.921Z,5.85
2023-02-05T10:46:02.936Z,6.11
2023-02-05T10:56:06.900Z,7.03
2023-02-05T11:06:11.804Z,6.45
2023-02-05T11:16:15.782Z,6.97
2023-02-05T11:26:21.352Z,6.40
2023-02-05T11:36:25.471Z,6.68
2023-02-05T11:46:42.564Z,6.42
2023-02-05T11:57:17.786Z,7.20
2023-02-05T12:07:22.294Z,6.72
2023-02-05T12:17:41.988Z,6.79
2023-02-05T12:28:22.462Z,6.82
2023-02-05T12:38:43.527Z,6.85
2023-02-05T12:49:12.032Z,6.94
2023-02-05T12:59:28.065Z,6.57
2023-02-05T13:10:02.323Z,7.47
2023-02-05T13:20:08.445Z,7.49
2023-02-05T13:30:21.974Z,7.06
2023-02-05T13:40:30.422Z,7.32
2023-02-05T13:50:42.643Z,6.54
2023-02-05T14:00:49.544Z,6.24
2023-02-05T14:11:04.275Z,6.66
2023-02-05T14:21:31.702Z,6.73
2023-02-05T14:31:48.916Z,6.72
2023-02-05T14:41:59.425Z,6.18
2023-02-05T14:52:17.055Z,7.12
2023-02-05T15:02:58.851Z,7.36
2023-02-05T15:13:29.483Z,7.68
2023-02-05T15:23:36.381Z,7.63
2023-02-05T15:34:03.578Z,7.90
2023-02-05T15:44:20.339Z,8.01
2023-02-05T15:54:27.550Z,7.50
2023-02-05T16:04:35.562Z,8.18
2023-02-05T16:14:38.027Z,7.52
2023-02-05T16:24:43.034Z,7.40
2023-02-05T16:34:45.953Z,8.14
2023-02-05T16:44:50.004Z,8.10
2023-02-05T16:54:53.159Z,7.33
2023-02-05T17:04:58.063Z,7.73
2023-02-05T17:15:23.651Z,7.96
2023-02-05T17:25:37.703Z,7.74
2023-02-05T17:35:40.662Z,7.77
2023-02-05T17:45:45.940Z,7.66
2023-02-05T17:55:49.138Z,7.71
2023-02-05T18:05:52.938Z,7.70
2023-02-05T18:16:01.708Z,7.30
2023-02-05T18:26:06.603Z,7.32
2023-02-05T18:36:12.536Z,7.52
2023-02-05T18:46:21.277Z,7.19
2023-02-05T18:56:25.937Z,6.79
2023-02-05T19:06:28.339Z,7.10
2023-02-05T19:16:32.526Z,7.12
2023-02-05T19:26:36.746Z,6.55
2023-02-05T19:36:39.289Z,6.84
2023-02-05T19:46:44.308Z,6.95
2023-02-05T19:56:46.972Z,6.67
2023-02-05T20:06:49.582Z,7.39
2023-02-05T20:16:53.049Z,7.29
2023-02-05T20:26:56.796Z,7.46
2023-02-05T20:37:04.387Z,7.22
2023-02-05T20:47:08.503Z,6.24
2023-02-05T20:57:10.668Z,7.19
2023-02-05T21:07:13.128Z,6.77
2023-02-05T21:17:15.533Z,6.96
2023-02-05T21:27:17.620Z,6.50
2023-02-05T21:37:19.750Z,6.27
2023-02-05T21:47:22.141Z,6.04
2023-02-05T21:57:24.907Z,6.59
2023-02-05T22:07:27.025Z,6.39
2023-02-05T22:17:29.348Z,5.92
2023-02-05T22:27:31.978Z,6.03
2023-02-05T22:37:34.056Z,6.06
2023-02-05T22:47:36.492Z,5.62
2023-02-05T22:57:39.801Z,5.73
2023-02-05T23:07:42.072Z,5.19
2023-02-05T23:17:44.700Z,5.57
2023-02-05T23:27:47.135Z,5.31
2023-02-05T23:37:49.588Z,4.58
2023-02-05T23:47:51.773Z,5.60
2023-02-05T23:57:54.163Z,4.77
